sensor_id;sensor_type;location;lat;lon;timestamp;pressure;altitude;pressure_sealevel;temperature;humidity
63901;BME280;50538;53.482;10.294;2023-12-20T00:00:34;100501.94;;;6.07;100.00
63901;BME280;50538;53.482;10.294;2023-12-20T00:10:37;100498.09;;;5.91;100.00
63901;BME280;50538;53.482;10.294;2023-12-20T00:20:38;100498.28;;;5.80;100.00
63901;BME280;50538;53.482;10.294;2023-12-20T00:30:44;100496.75;;;5.68;100.00
63901;BME280;50538;53.482;10.294;2023-12-20T00:40:47;100492.06;;;5.52;100.00
63901;BME280;50538;53.482;10.294;2023-12-20T00:50:48;100472.38;;;5.37;100.00
63901;BME280;50538;53.482;10.294;2023-12-20T01:00:54;100477.78;;;5.35;100.00
63901;BME280;50538;53.482;10.294;2023-12-20T01:10:54;100458.25;;;5.38;100.00
63901;BME280;50538;53.482;10.294;2023-12-20T01:20:55;100464.91;;;5.42;100.00
63901;BME280;50538;53.482;10.294;2023-12-20T01:30:57;100456.31;;;5.40;100.00
63901;BME280;50538;53.482;10.294;2023-12-20T01:41:00;100453.25;;;5.35;100.00
63901;BME280;50538;53.482;10.294;2023-12-20T01:51:04;100444.56;;;5.25;100.00
63901;BME280;50538;53.482;10.294;2023-12-20T02:01:11;100427.22;;;5.13;100.00
63901;BME280;50538;53.482;10.294;2023-12-20T02:11:14;100419.19;;;5.14;100.00
63901;BME280;50538;53.482;10.294;2023-12-20T02:21:15;100417.41;;;5.15;100.00
63901;BME280;50538;53.482;10.294;2023-12-20T02:31:21;100398.56;;;5.10;100.00
63901;BME280;50538;53.482;10.294;2023-12-20T02:41:24;100389.13;;;5.07;100.00
63901;BME280;50538;53.482;10.294;2023-12-20T02:51:25;100381.94;;;5.09;100.00
63901;BME280;50538;53.482;10.294;2023-12-20T03:01:26;100388.44;;;5.15;100.00
63901;BME280;50538;53.482;10.294;2023-12-20T03:11:27;100366.16;;;5.19;100.00
63901;BME280;50538;53.482;10.294;2023-12-20T03:21:32;100356.84;;;5.24;100.00
63901;BME280;50538;53.482;10.294;2023-12-20T03:31:32;100348.97;;;5.24;100.00
63901;BME280;50538;53.482;10.294;2023-12-20T03:41:36;100332.19;;;5.25;100.00
63901;BME280;50538;53.482;10.294;2023-12-20T03:51:50;100339.13;;;5.26;100.00
63901;BME280;50538;53.482;10.294;2023-12-20T04:02:12;100314.84;;;5.32;100.00
63901;BME280;50538;53.482;10.294;2023-12-20T04:12:18;100309.44;;;5.34;100.00
63901;BME280;50538;53.482;10.294;2023-12-20T04:22:18;100298.47;;;5.39;100.00
63901;BME280;50538;53.482;10.294;2023-12-20T04:32:31;100285.16;;;5.40;100.00
63901;BME280;50538;53.482;10.294;2023-12-20T04:42:32;100275.19;;;5.44;100.00
63901;BME280;50538;53.482;10.294;2023-12-20T04:52:34;100253.72;;;5.39;100.00
63901;BME280;50538;53.482;10.294;2023-12-20T05:02:36;100244.84;;;5.40;100.00
63901;BME280;50538;53.482;10.294;2023-12-20T05:12:42;100237.34;;;5.45;100.00
63901;BME280;50538;53.482;10.294;2023-12-20T05:22:45;100234.13;;;5.51;100.00
63901;BME280;50538;53.482;10.294;2023-12-20T05:32:48;100239.50;;;5.59;100.00
63901;BME280;50538;53.482;10.294;2023-12-20T05:42:56;100239.75;;;5.65;100.00
63901;BME280;50538;53.482;10.294;2023-12-20T05:53:02;100219.22;;;5.69;100.00
63901;BME280;50538;53.482;10.294;2023-12-20T06:03:05;100212.00;;;5.71;100.00
63901;BME280;50538;53.482;10.294;2023-12-20T06:13:05;100209.22;;;5.73;100.00
63901;BME280;50538;53.482;10.294;2023-12-20T06:23:14;100204.34;;;5.78;100.00
63901;BME280;50538;53.482;10.294;2023-12-20T06:33:22;100192.16;;;5.77;100.00
63901;BME280;50538;53.482;10.294;2023-12-20T06:43:27;100192.00;;;5.78;100.00
63901;BME280;50538;53.482;10.294;2023-12-20T06:53:30;100180.88;;;5.84;100.00
63901;BME280;50538;53.482;10.294;2023-12-20T07:03:33;100167.00;;;5.82;100.00
63901;BME280;50538;53.482;10.294;2023-12-20T07:13:43;100151.22;;;5.82;100.00
63901;BME280;50538;53.482;10.294;2023-12-20T07:23:43;100147.59;;;5.83;100.00
63901;BME280;50538;53.482;10.294;2023-12-20T07:33:51;100164.38;;;5.82;100.00
63901;BME280;50538;53.482;10.294;2023-12-20T07:43:51;100143.69;;;5.87;100.00
63901;BME280;50538;53.482;10.294;2023-12-20T07:53:54;100137.78;;;5.93;100.00
63901;BME280;50538;53.482;10.294;2023-12-20T08:04:05;100130.25;;;5.98;100.00
63901;BME280;50538;53.482;10.294;2023-12-20T08:14:05;100120.91;;;6.04;100.00
63901;BME280;50538;53.482;10.294;2023-12-20T08:24:06;100104.13;;;6.05;100.00
63901;BME280;50538;53.482;10.294;2023-12-20T08:34:09;100102.53;;;6.12;100.00
63901;BME280;50538;53.482;10.294;2023-12-20T08:44:27;100053.66;;;6.18;100.00
63901;BME280;50538;53.482;10.294;2023-12-20T08:54:34;100081.44;;;6.30;100.00
63901;BME280;50538;53.482;10.294;2023-12-20T09:04:35;100051.00;;;6.36;100.00
63901;BME280;50538;53.482;10.294;2023-12-20T09:14:38;100039.66;;;6.43;100.00
63901;BME280;50538;53.482;10.294;2023-12-20T09:24:59;100037.81;;;6.36;100.00
63901;BME280;50538;53.482;10.294;2023-12-20T09:35:38;100091.41;;;6.18;100.00
63901;BME280;50538;53.482;10.294;2023-12-20T10:18:42;100051.63;;;5.86;100.00
63901;BME280;50538;53.482;10.294;2023-12-20T10:29:01;100049.44;;;5.81;100.00
63901;BME280;50538;53.482;10.294;2023-12-20T10:39:05;100087.06;;;5.74;100.00
63901;BME280;50538;53.482;10.294;2023-12-20T10:49:08;100035.38;;;5.73;100.00
63901;BME280;50538;53.482;10.294;2023-12-20T10:59:10;100051.41;;;5.79;100.00
63901;BME280;50538;53.482;10.294;2023-12-20T11:19:26;100052.53;;;5.77;100.00
63901;BME280;50538;53.482;10.294;2023-12-20T11:29:37;100050.06;;;5.75;100.00
63901;BME280;50538;53.482;10.294;2023-12-20T11:39:37;100055.09;;;5.68;100.00
63901;BME280;50538;53.482;10.294;2023-12-20T11:50:00;100052.00;;;5.73;100.00
63901;BME280;50538;53.482;10.294;2023-12-20T12:00:07;100054.78;;;5.72;100.00
63901;BME280;50538;53.482;10.294;2023-12-20T12:10:07;100038.75;;;5.65;100.00
63901;BME280;50538;53.482;10.294;2023-12-20T12:20:08;100062.25;;;5.76;100.00
63901;BME280;50538;53.482;10.294;2023-12-20T12:30:10;100032.06;;;5.71;100.00
63901;BME280;50538;53.482;10.294;2023-12-20T12:40:15;100028.38;;;5.63;100.00
63901;BME280;50538;53.482;10.294;2023-12-20T12:50:15;100024.44;;;5.85;100.00
63901;BME280;50538;53.482;10.294;2023-12-20T13:00:16;100033.66;;;6.07;100.00
63901;BME280;50538;53.482;10.294;2023-12-20T13:10:16;100026.69;;;6.24;100.00
63901;BME280;50538;53.482;10.294;2023-12-20T13:20:17;100032.88;;;6.41;100.00
63901;BME280;50538;53.482;10.294;2023-12-20T13:30:17;100041.66;;;6.49;100.00
63901;BME280;50538;53.482;10.294;2023-12-20T13:40:18;100035.72;;;6.47;100.00
63901;BME280;50538;53.482;10.294;2023-12-20T13:50:19;100051.97;;;6.34;100.00
63901;BME280;50538;53.482;10.294;2023-12-20T14:00:19;100065.88;;;6.19;100.00
63901;BME280;50538;53.482;10.294;2023-12-20T14:10:20;100063.94;;;6.03;100.00
63901;BME280;50538;53.482;10.294;2023-12-20T14:20:21;100076.44;;;6.01;100.00
63901;BME280;50538;53.482;10.294;2023-12-20T14:30:21;100080.56;;;6.04;100.00
63901;BME280;50538;53.482;10.294;2023-12-20T14:40:22;100075.16;;;6.05;100.00
63901;BME280;50538;53.482;10.294;2023-12-20T14:50:22;100088.84;;;6.09;100.00
63901;BME280;50538;53.482;10.294;2023-12-20T15:00:22;100084.84;;;6.05;100.00
63901;BME280;50538;53.482;10.294;2023-12-20T15:10:23;100101.28;;;5.98;100.00
63901;BME280;50538;53.482;10.294;2023-12-20T15:20:23;100104.31;;;5.86;100.00
63901;BME280;50538;53.482;10.294;2023-12-20T15:30:24;100096.63;;;5.75;100.00
63901;BME280;50538;53.482;10.294;2023-12-20T15:40:25;100085.88;;;5.68;100.00
63901;BME280;50538;53.482;10.294;2023-12-20T15:50:25;100085.69;;;5.52;100.00
63901;BME280;50538;53.482;10.294;2023-12-20T16:00:26;100080.78;;;5.39;100.00
63901;BME280;50538;53.482;10.294;2023-12-20T16:10:26;100085.31;;;5.29;100.00
63901;BME280;50538;53.482;10.294;2023-12-20T16:20:28;100071.63;;;5.25;100.00
63901;BME280;50538;53.482;10.294;2023-12-20T16:30:28;100079.38;;;5.27;100.00
63901;BME280;50538;53.482;10.294;2023-12-20T16:40:29;100088.09;;;5.27;100.00
63901;BME280;50538;53.482;10.294;2023-12-20T16:50:29;100079.22;;;5.28;100.00
63901;BME280;50538;53.482;10.294;2023-12-20T17:00:29;100079.06;;;5.30;100.00
63901;BME280;50538;53.482;10.294;2023-12-20T17:10:30;100087.66;;;5.32;100.00
63901;BME280;50538;53.482;10.294;2023-12-20T17:20:51;100096.81;;;5.28;100.00
63901;BME280;50538;53.482;10.294;2023-12-20T17:31:16;100100.59;;;4.88;100.00
63901;BME280;50538;53.482;10.294;2023-12-20T17:52:33;100062.44;;;4.75;100.00
63901;BME280;50538;53.482;10.294;2023-12-20T18:02:33;100052.09;;;4.73;100.00
63901;BME280;50538;53.482;10.294;2023-12-20T18:12:34;100051.63;;;4.78;100.00
63901;BME280;50538;53.482;10.294;2023-12-20T18:22:34;100022.66;;;4.87;100.00
63901;BME280;50538;53.482;10.294;2023-12-20T18:32:35;100011.31;;;4.87;100.00
63901;BME280;50538;53.482;10.294;2023-12-20T18:42:38;99995.38;;;4.88;100.00
63901;BME280;50538;53.482;10.294;2023-12-20T18:52:43;99972.69;;;4.87;100.00
63901;BME280;50538;53.482;10.294;2023-12-20T19:02:54;99969.75;;;4.90;100.00
63901;BME280;50538;53.482;10.294;2023-12-20T19:12:54;99960.97;;;4.99;100.00
63901;BME280;50538;53.482;10.294;2023-12-20T19:33:56;99931.69;;;5.12;100.00
63901;BME280;50538;53.482;10.294;2023-12-20T19:44:19;99915.75;;;5.14;100.00
63901;BME280;50538;53.482;10.294;2023-12-20T19:54:24;99883.78;;;5.09;100.00
63901;BME280;50538;53.482;10.294;2023-12-20T20:04:25;99859.44;;;5.07;100.00
63901;BME280;50538;53.482;10.294;2023-12-20T20:14:26;99835.91;;;5.05;100.00
63901;BME280;50538;53.482;10.294;2023-12-20T20:24:39;99803.97;;;5.00;100.00
63901;BME280;50538;53.482;10.294;2023-12-20T20:34:48;99798.56;;;5.01;100.00
63901;BME280;50538;53.482;10.294;2023-12-20T20:44:49;99758.25;;;5.01;100.00
63901;BME280;50538;53.482;10.294;2023-12-20T20:54:52;99726.69;;;5.01;100.00
63901;BME280;50538;53.482;10.294;2023-12-20T21:04:52;99702.56;;;5.06;100.00
63901;BME280;50538;53.482;10.294;2023-12-20T21:14:56;99672.78;;;5.05;100.00
63901;BME280;50538;53.482;10.294;2023-12-20T21:24:57;99646.00;;;5.10;100.00
63901;BME280;50538;53.482;10.294;2023-12-20T21:34:59;99617.72;;;5.12;100.00
63901;BME280;50538;53.482;10.294;2023-12-20T21:45:00;99589.47;;;5.14;100.00
63901;BME280;50538;53.482;10.294;2023-12-20T21:55:00;99563.50;;;5.19;100.00
63901;BME280;50538;53.482;10.294;2023-12-20T22:05:02;99542.94;;;5.22;100.00
63901;BME280;50538;53.482;10.294;2023-12-20T22:15:04;99524.69;;;5.21;100.00
63901;BME280;50538;53.482;10.294;2023-12-20T22:25:05;99499.34;;;5.20;100.00
63901;BME280;50538;53.482;10.294;2023-12-20T22:35:06;99467.63;;;5.21;100.00
63901;BME280;50538;53.482;10.294;2023-12-20T22:45:12;99442.63;;;5.25;100.00
63901;BME280;50538;53.482;10.294;2023-12-20T22:55:13;99415.97;;;5.37;100.00
63901;BME280;50538;53.482;10.294;2023-12-20T23:05:13;99403.44;;;5.63;100.00
63901;BME280;50538;53.482;10.294;2023-12-20T23:15:14;99396.78;;;5.91;100.00
63901;BME280;50538;53.482;10.294;2023-12-20T23:25:17;99361.63;;;6.15;100.00
63901;BME280;50538;53.482;10.294;2023-12-20T23:35:18;99336.69;;;6.57;100.00
63901;BME280;50538;53.482;10.294;2023-12-20T23:45:19;99326.25;;;6.94;100.00
63901;BME280;50538;53.482;10.294;2023-12-20T23:55:19;99342.16;;;7.24;100.00
